createdAt,value
2018-08-13T00:00:14.645Z,37.00
2018-08-13T00:05:18.512Z,37.00
2018-08-13T00:10:23.089Z,37.00
2018-08-13T00:15:27.576Z,37.00
2018-08-13T00:20:31.284Z,36.90
2018-08-13T00:25:35.375Z,37.00
2018-08-13T00:30:39.617Z,37.00
2018-08-13T00:35:43.627Z,37.20
2018-08-13T00:40:47.923Z,37.40
2018-08-13T00:45:51.706Z,37.30
2018-08-13T00:50:55.549Z,37.50
2018-08-13T00:55:59.427Z,37.60
2018-08-13T01:01:03.397Z,37.70
2018-08-13T01:06:07.145Z,37.80
2018-08-13T01:11:10.984Z,37.70
2018-08-13T01:16:15.040Z,37.80
2018-08-13T01:21:18.703Z,37.80
2018-08-13T01:26:22.941Z,37.80
2018-08-13T01:31:26.672Z,37.90
2018-08-13T01:36:30.570Z,37.90
2018-08-13T01:41:34.403Z,37.90
2018-08-13T01:46:38.352Z,37.90
2018-08-13T01:51:42.087Z,38.10
2018-08-13T01:56:52.608Z,38.00
2018-08-13T02:01:56.786Z,38.20
2018-08-13T02:07:00.577Z,38.30
2018-08-13T02:12:05.200Z,38.30
2018-08-13T02:17:09.019Z,38.50
2018-08-13T02:22:12.801Z,38.60
2018-08-13T02:27:16.800Z,38.70
2018-08-13T02:32:20.438Z,38.80
2018-08-13T02:37:25.025Z,38.90
2018-08-13T02:42:28.879Z,38.90
2018-08-13T02:47:32.680Z,39.10
2018-08-13T02:52:36.844Z,39.10
2018-08-13T02:57:40.693Z,39.10
2018-08-13T03:02:44.404Z,39.20
2018-08-13T03:07:48.806Z,39.10
2018-08-13T03:12:52.694Z,39.10
2018-08-13T03:17:57.607Z,39.20
2018-08-13T03:23:01.361Z,39.40
2018-08-13T03:28:05.242Z,39.50
2018-08-13T03:33:09.043Z,39.50
2018-08-13T03:38:12.900Z,39.60
2018-08-13T03:43:17.111Z,39.60
2018-08-13T03:59:17.630Z,39.70
2018-08-13T04:04:21.504Z,39.70
2018-08-13T04:09:29.629Z,39.90
2018-08-13T04:14:34.031Z,40.10
2018-08-13T04:19:38.803Z,40.10
2018-08-13T04:24:42.534Z,40.00
2018-08-13T04:29:46.342Z,40.00
2018-08-13T04:40:19.282Z,40.10
2018-08-13T04:45:23.096Z,40.10
2018-08-13T04:50:27.065Z,40.10
2018-08-13T04:55:30.965Z,40.30
2018-08-13T05:00:34.997Z,40.20
2018-08-13T05:05:38.796Z,40.30
2018-08-13T05:10:42.795Z,40.10
2018-08-13T05:15:46.560Z,39.70
2018-08-13T05:20:50.261Z,39.60
2018-08-13T05:25:54.486Z,39.70
2018-08-13T05:30:58.257Z,40.10
2018-08-13T05:36:02.220Z,40.30
2018-08-13T05:41:06.081Z,40.70
2018-08-13T05:46:10.014Z,41.00
2018-08-13T05:51:13.982Z,42.00
2018-08-13T05:56:17.842Z,41.50
2018-08-13T06:01:21.800Z,41.60
2018-08-13T06:06:25.715Z,41.80
2018-08-13T06:11:29.462Z,42.00
2018-08-13T06:16:33.291Z,42.20
2018-08-13T06:21:37.317Z,42.30
2018-08-13T06:26:41.282Z,42.40
2018-08-13T06:31:45.075Z,42.60
2018-08-13T06:36:49.063Z,42.60
2018-08-13T06:41:52.852Z,42.80
2018-08-13T06:46:57.039Z,42.70
2018-08-13T06:52:01.202Z,42.90
2018-08-13T06:57:08.579Z,43.20
2018-08-13T07:02:12.481Z,43.60
2018-08-13T07:07:16.444Z,44.00
2018-08-13T07:12:20.672Z,44.70
2018-08-13T07:17:24.605Z,45.10
2018-08-13T07:22:28.661Z,45.30
2018-08-13T07:27:32.343Z,45.40
2018-08-13T07:32:36.212Z,45.30
2018-08-13T07:37:39.951Z,45.50
2018-08-13T07:42:44.444Z,45.50
2018-08-13T07:47:58.519Z,45.60
2018-08-13T07:53:02.436Z,45.70
2018-08-13T07:58:06.288Z,45.70
2018-08-13T08:03:10.077Z,45.70
2018-08-13T08:08:14.354Z,45.80
2018-08-13T08:13:17.967Z,45.70
2018-08-13T08:18:21.659Z,45.80
2018-08-13T08:23:25.397Z,45.70
2018-08-13T08:33:57.971Z,45.50
2018-08-13T08:44:35.709Z,45.70
2018-08-13T08:49:39.439Z,45.50
2018-08-13T08:54:43.472Z,45.60
2018-08-13T08:59:47.344Z,45.50
2018-08-13T09:15:47.728Z,46.10
2018-08-13T09:21:03.008Z,46.10
2018-08-13T09:26:17.815Z,46.20
2018-08-13T09:31:32.792Z,46.30
2018-08-13T09:36:36.603Z,46.30
2018-08-13T09:41:40.681Z,46.40
2018-08-13T09:46:45.105Z,46.50
2018-08-13T09:51:49.184Z,46.40
2018-08-13T09:56:53.016Z,46.40
2018-08-13T10:01:56.801Z,46.60
2018-08-13T10:07:00.760Z,46.80
2018-08-13T10:12:04.601Z,46.50
2018-08-13T10:17:08.659Z,46.50
2018-08-13T10:22:12.435Z,46.40
2018-08-13T10:27:16.525Z,46.40
2018-08-13T10:32:20.217Z,46.60
2018-08-13T10:37:24.159Z,46.70
2018-08-13T10:42:28.486Z,47.10
2018-08-13T10:47:32.233Z,47.50
2018-08-13T10:52:36.399Z,47.90
2018-08-13T10:57:40.252Z,48.00
2018-08-13T11:02:44.106Z,47.50
2018-08-13T11:13:16.272Z,47.30
2018-08-13T11:18:20.195Z,47.00
2018-08-13T11:23:24.151Z,46.90
2018-08-13T11:28:43.988Z,46.80
2018-08-13T11:33:47.737Z,46.80
2018-08-13T11:39:03.540Z,46.90
2018-08-13T11:44:07.301Z,47.00
2018-08-13T11:49:22.293Z,46.90
2018-08-13T11:54:26.082Z,46.90
2018-08-13T12:05:06.769Z,46.90
2018-08-13T12:10:11.728Z,47.00
2018-08-13T12:15:15.532Z,47.00
2018-08-13T12:20:20.335Z,46.80
2018-08-13T12:25:29.204Z,46.60
2018-08-13T12:30:33.133Z,46.60
2018-08-13T12:35:36.885Z,46.80
2018-08-13T12:40:40.736Z,46.70
2018-08-13T12:45:44.507Z,46.70
2018-08-13T12:50:48.609Z,46.80
2018-08-13T12:55:52.640Z,46.90
2018-08-13T13:00:59.497Z,47.10
2018-08-13T13:06:03.422Z,47.20
2018-08-13T13:11:07.571Z,47.50
2018-08-13T13:16:11.342Z,47.50
2018-08-13T13:21:15.096Z,48.10
2018-08-13T13:26:18.776Z,47.70
2018-08-13T13:31:23.193Z,48.20
2018-08-13T13:36:26.881Z,48.50
2018-08-13T13:41:30.910Z,49.10
2018-08-13T13:46:35.164Z,49.20
2018-08-13T13:51:39.637Z,49.20
2018-08-13T13:56:43.330Z,49.30
2018-08-13T14:01:47.499Z,49.30
2018-08-13T14:06:51.333Z,49.80
2018-08-13T14:11:55.254Z,48.80
2018-08-13T14:16:59.623Z,48.40
2018-08-13T14:27:32.880Z,47.20
2018-08-13T14:32:36.709Z,47.10
2018-08-13T14:37:41.536Z,47.30
2018-08-13T14:42:45.469Z,47.80
2018-08-13T14:53:28.221Z,48.20
2018-08-13T14:58:35.991Z,49.10
2018-08-13T15:03:39.916Z,49.00
2018-08-13T15:14:30.728Z,49.60
2018-08-13T15:19:53.220Z,49.80
2018-08-13T15:30:36.559Z,50.20
2018-08-13T15:35:46.336Z,49.80
2018-08-13T15:40:49.966Z,50.00
2018-08-13T15:45:53.771Z,49.90
2018-08-13T15:50:57.546Z,49.60
2018-08-13T15:56:01.195Z,49.70
2018-08-13T16:01:05.021Z,49.50
2018-08-13T16:06:08.819Z,49.60
2018-08-13T16:11:12.731Z,49.70
2018-08-13T16:16:16.536Z,49.70
2018-08-13T16:21:20.686Z,49.80
2018-08-13T16:26:24.348Z,49.90
2018-08-13T16:31:28.178Z,50.00
2018-08-13T16:36:31.953Z,50.50
2018-08-13T16:41:36.033Z,50.20
2018-08-13T16:46:39.750Z,50.20
2018-08-13T16:51:43.961Z,50.90
2018-08-13T16:56:47.942Z,50.40
2018-08-13T17:01:52.028Z,50.40
2018-08-13T17:06:55.902Z,50.50
2018-08-13T17:11:59.685Z,51.20
2018-08-13T17:17:03.393Z,51.40
2018-08-13T17:22:07.280Z,51.60
2018-08-13T17:27:11.043Z,51.50
2018-08-13T17:32:14.946Z,51.70
2018-08-13T17:42:47.602Z,51.80
2018-08-13T17:47:52.999Z,52.00
2018-08-13T17:52:56.871Z,52.00
2018-08-13T18:03:33.566Z,52.50
2018-08-13T18:08:43.128Z,52.50
2018-08-13T18:13:47.028Z,52.40
2018-08-13T18:24:25.474Z,52.70
2018-08-13T18:29:29.258Z,52.70
2018-08-13T18:34:33.155Z,52.70
2018-08-13T18:39:37.054Z,52.90
2018-08-13T18:44:41.066Z,53.00
2018-08-13T18:49:44.981Z,53.10
2018-08-13T18:54:48.737Z,53.30
2018-08-13T18:59:52.418Z,53.30
2018-08-13T19:04:56.203Z,53.10
2018-08-13T19:09:59.906Z,53.20
2018-08-13T19:15:03.721Z,53.30
2018-08-13T19:20:08.946Z,53.40
2018-08-13T19:25:15.939Z,53.70
2018-08-13T19:30:20.422Z,53.80
2018-08-13T19:35:37.419Z,53.60
2018-08-13T19:40:41.329Z,53.80
2018-08-13T19:45:45.431Z,53.80
2018-08-13T19:50:49.256Z,53.60
2018-08-13T19:55:52.961Z,53.80
2018-08-13T20:00:56.636Z,53.70
2018-08-13T20:06:00.383Z,54.50
2018-08-13T20:11:04.202Z,53.80
2018-08-13T20:16:08.335Z,54.00
2018-08-13T20:21:12.216Z,53.90
2018-08-13T20:26:16.300Z,54.00
2018-08-13T20:31:20.167Z,54.00
2018-08-13T20:36:43.814Z,54.00
2018-08-13T20:41:47.544Z,54.00
2018-08-13T20:46:51.414Z,54.10
2018-08-13T20:51:55.303Z,54.20
2018-08-13T20:56:59.522Z,54.30
2018-08-13T21:02:03.367Z,54.20
2018-08-13T21:07:07.178Z,54.30
2018-08-13T21:12:11.098Z,54.20
2018-08-13T21:17:14.863Z,54.30
2018-08-13T21:22:18.735Z,54.30
2018-08-13T21:27:22.410Z,54.30
2018-08-13T21:32:26.379Z,54.30
2018-08-13T21:37:30.312Z,54.50
2018-08-13T21:42:34.426Z,54.50
2018-08-13T21:58:50.055Z,54.50
2018-08-13T22:03:53.750Z,54.50
2018-08-13T22:14:33.477Z,54.60
2018-08-13T22:19:37.310Z,54.40
2018-08-13T22:24:52.108Z,54.40
2018-08-13T22:29:56.142Z,55.10
2018-08-13T22:34:59.994Z,54.50
2018-08-13T22:40:03.736Z,54.50
2018-08-13T22:45:08.538Z,54.50
2018-08-13T22:50:12.276Z,54.60
2018-08-13T22:55:17.582Z,54.70
2018-08-13T23:00:21.955Z,54.70
2018-08-13T23:05:26.982Z,54.70
2018-08-13T23:10:30.915Z,54.70
2018-08-13T23:15:34.750Z,54.80
2018-08-13T23:20:38.588Z,54.70
2018-08-13T23:25:42.802Z,54.80
2018-08-13T23:30:46.674Z,54.70
2018-08-13T23:35:50.569Z,54.80
2018-08-13T23:40:54.489Z,54.80
2018-08-13T23:45:58.575Z,54.90
2018-08-13T23:51:02.421Z,54.80
2018-08-13T23:56:06.279Z,54.80
